createdAt,value
2022-09-28T00:01:56.482Z,12.80
2022-09-28T00:04:25.115Z,12.80
2022-09-28T00:06:53.524Z,12.80
2022-09-28T00:09:23.292Z,12.80
2022-09-28T00:11:52.598Z,12.80
2022-09-28T00:14:21.870Z,12.80
2022-09-28T00:16:51.452Z,12.80
2022-09-28T00:19:19.870Z,13.00
2022-09-28T00:21:48.211Z,12.80
2022-09-28T00:24:38.125Z,12.80
2022-09-28T00:27:06.477Z,12.80
2022-09-28T00:29:37.737Z,12.80
2022-09-28T00:32:08.943Z,12.80
2022-09-28T00:34:40.026Z,12.90
2022-09-28T00:37:09.906Z,12.80
2022-09-28T00:39:41.443Z,12.80
2022-09-28T00:42:16.920Z,12.80
2022-09-28T00:44:50.578Z,12.80
2022-09-28T00:47:41.283Z,12.80
2022-09-28T00:50:17.525Z,12.80
2022-09-28T00:52:53.912Z,12.80
2022-09-28T00:55:32.078Z,12.80
2022-09-28T00:58:04.486Z,12.80
2022-09-28T01:00:33.113Z,12.80
2022-09-28T01:03:01.496Z,12.80
2022-09-28T01:05:29.923Z,12.80
2022-09-28T01:07:59.494Z,12.80
2022-09-28T01:10:31.461Z,12.80
2022-09-28T01:13:00.508Z,12.80
2022-09-28T01:15:31.092Z,12.80
2022-09-28T01:18:12.583Z,12.80
2022-09-28T01:20:57.160Z,12.80
2022-09-28T01:23:49.995Z,12.80
2022-09-28T01:27:07.065Z,12.80
2022-09-28T01:30:02.520Z,12.80
2022-09-28T01:32:42.015Z,12.90
2022-09-28T01:35:16.050Z,12.80
2022-09-28T01:37:53.072Z,12.80
2022-09-28T01:40:24.191Z,12.80
2022-09-28T01:43:00.753Z,12.80
2022-09-28T01:45:33.970Z,12.80
2022-09-28T01:48:07.248Z,12.80
2022-09-28T01:50:39.904Z,12.80
2022-09-28T01:53:14.329Z,12.80
2022-09-28T01:55:48.616Z,12.80
2022-09-28T01:58:26.109Z,12.80
2022-09-28T02:01:02.305Z,12.70
2022-09-28T02:03:36.569Z,12.90
2022-09-28T02:06:10.580Z,12.70
2022-09-28T02:08:42.534Z,12.70
2022-09-28T02:11:15.554Z,12.70
2022-09-28T02:13:50.330Z,12.70
2022-09-28T02:16:26.047Z,12.60
2022-09-28T02:18:54.494Z,12.70
2022-09-28T02:21:28.163Z,12.60
2022-09-28T02:24:04.059Z,12.60
2022-09-28T02:26:37.444Z,12.50
2022-09-28T02:29:07.218Z,12.50
2022-09-28T02:31:36.134Z,12.50
2022-09-28T02:34:05.141Z,12.40
2022-09-28T02:36:34.946Z,12.40
2022-09-28T02:39:03.436Z,12.40
2022-09-28T02:41:51.534Z,12.30
2022-09-28T02:44:41.461Z,12.30
2022-09-28T02:47:26.200Z,12.40
2022-09-28T02:50:04.927Z,12.20
2022-09-28T02:53:00.933Z,12.20
2022-09-28T02:55:47.240Z,12.10
2022-09-28T02:58:29.352Z,12.10
2022-09-28T03:01:11.738Z,12.10
2022-09-28T03:03:49.998Z,12.10
2022-09-28T03:06:24.528Z,12.00
2022-09-28T03:08:59.611Z,12.00
2022-09-28T03:11:37.749Z,12.10
2022-09-28T03:14:07.256Z,11.90
2022-09-28T03:16:47.987Z,11.90
2022-09-28T03:19:18.765Z,11.90
2022-09-28T03:21:47.287Z,11.80
2022-09-28T03:24:16.665Z,11.80
2022-09-28T03:26:45.044Z,11.80
2022-09-28T03:29:15.101Z,12.10
2022-09-28T03:31:48.598Z,11.80
2022-09-28T03:34:17.143Z,11.80
2022-09-28T03:36:45.523Z,11.80
2022-09-28T03:39:13.978Z,11.70
2022-09-28T03:41:42.503Z,11.70
2022-09-28T03:44:10.875Z,11.70
2022-09-28T03:46:40.077Z,11.70
2022-09-28T03:49:12.310Z,11.80
2022-09-28T03:51:40.676Z,11.60
2022-09-28T03:54:10.669Z,11.70
2022-09-28T03:56:39.064Z,11.60
2022-09-28T03:59:07.635Z,11.60
2022-09-28T04:01:37.573Z,11.50
2022-09-28T04:04:06.111Z,11.50
2022-09-28T04:06:35.952Z,11.50
2022-09-28T04:09:04.353Z,11.50
2022-09-28T04:11:47.576Z,11.40
2022-09-28T04:14:21.915Z,11.40
2022-09-28T04:16:52.283Z,11.40
2022-09-28T04:19:20.808Z,11.60
2022-09-28T04:21:59.282Z,11.40
2022-09-28T04:24:28.108Z,11.30
2022-09-28T04:27:16.492Z,11.30
2022-09-28T04:29:44.196Z,11.30
2022-09-28T04:32:14.361Z,11.30
2022-09-28T04:34:44.364Z,11.30
2022-09-28T04:37:15.019Z,11.30
2022-09-28T04:39:48.057Z,11.30
2022-09-28T04:42:19.397Z,11.20
2022-09-28T04:44:48.096Z,11.20
2022-09-28T04:47:16.436Z,11.20
2022-09-28T04:50:03.558Z,11.20
2022-09-28T04:52:37.811Z,11.20
2022-09-28T04:55:07.663Z,11.20
2022-09-28T04:57:36.627Z,11.20
2022-09-28T05:00:06.114Z,11.20
2022-09-28T05:02:37.025Z,11.20
2022-09-28T05:05:25.391Z,11.20
2022-09-28T05:08:21.536Z,11.20
2022-09-28T05:10:49.990Z,11.20
2022-09-28T05:13:18.773Z,11.20
2022-09-28T05:15:47.367Z,11.20
2022-09-28T05:18:15.793Z,11.20
2022-09-28T05:20:49.668Z,11.30
2022-09-28T05:23:20.244Z,11.20
2022-09-28T05:25:48.652Z,11.20
2022-09-28T05:28:25.528Z,11.20
2022-09-28T05:31:12.400Z,11.20
2022-09-28T05:33:55.404Z,11.20
2022-09-28T05:36:26.803Z,11.20
2022-09-28T05:38:57.830Z,11.20
2022-09-28T05:41:26.237Z,11.20
2022-09-28T05:43:55.117Z,11.30
2022-09-28T05:46:24.121Z,11.30
2022-09-28T05:48:54.291Z,11.30
2022-09-28T05:51:24.660Z,11.30
2022-09-28T05:53:58.122Z,11.30
2022-09-28T05:56:31.926Z,11.30
2022-09-28T05:59:00.498Z,11.30
2022-09-28T06:01:30.929Z,11.30
2022-09-28T06:04:01.160Z,11.30
2022-09-28T06:06:29.561Z,11.60
2022-09-28T06:09:00.113Z,11.40
2022-09-28T06:11:37.562Z,11.40
2022-09-28T06:14:13.856Z,11.40
2022-09-28T06:16:44.071Z,11.40
2022-09-28T06:19:13.856Z,11.50
2022-09-28T06:22:20.565Z,11.40
2022-09-28T06:25:11.499Z,11.50
2022-09-28T06:27:42.600Z,11.50
2022-09-28T06:30:12.553Z,11.50
2022-09-28T06:32:42.169Z,11.50
2022-09-28T06:35:10.885Z,11.50
2022-09-28T06:37:39.830Z,11.50
2022-09-28T06:40:11.350Z,11.60
2022-09-28T06:42:39.925Z,11.60
2022-09-28T06:45:53.152Z,11.60
2022-09-28T06:48:44.337Z,11.80
2022-09-28T06:51:19.894Z,11.70
2022-09-28T06:53:56.597Z,11.60
2022-09-28T06:56:55.736Z,11.70
2022-09-28T06:59:24.203Z,11.70
2022-09-28T07:01:53.615Z,11.70
2022-09-28T07:04:43.098Z,11.70
2022-09-28T07:07:34.249Z,11.70
2022-09-28T07:10:12.123Z,11.70
2022-09-28T07:12:48.940Z,11.80
2022-09-28T07:15:27.659Z,11.80
2022-09-28T07:18:02.670Z,11.80
2022-09-28T07:20:39.936Z,11.80
2022-09-28T07:23:19.019Z,11.80
2022-09-28T07:26:09.068Z,11.80
2022-09-28T07:28:57.802Z,11.80
2022-09-28T07:31:55.359Z,11.80
2022-09-28T07:34:44.587Z,11.90
2022-09-28T07:37:26.820Z,11.90
2022-09-28T07:40:13.877Z,11.90
2022-09-28T07:42:42.490Z,11.90
2022-09-28T07:45:13.704Z,12.00
2022-09-28T07:47:42.186Z,11.90
2022-09-28T07:50:15.141Z,12.20
2022-09-28T07:53:19.468Z,11.90
2022-09-28T07:56:17.424Z,12.00
2022-09-28T07:59:04.431Z,12.00
2022-09-28T08:01:43.159Z,12.00
2022-09-28T08:04:15.199Z,12.10
2022-09-28T08:06:45.236Z,12.00
2022-09-28T08:09:15.295Z,12.00
2022-09-28T08:12:04.146Z,12.10
2022-09-28T08:14:42.254Z,12.10
2022-09-28T08:17:50.568Z,12.10
2022-09-28T08:20:40.255Z,12.10
2022-09-28T08:23:11.609Z,12.20
2022-09-28T08:25:46.952Z,12.20
2022-09-28T08:28:16.003Z,12.20
2022-09-28T08:30:48.236Z,12.20
2022-09-28T08:33:37.054Z,12.30
2022-09-28T08:36:24.036Z,12.40
2022-09-28T08:39:04.023Z,12.40
2022-09-28T08:42:01.235Z,12.50
2022-09-28T08:44:44.997Z,12.50
2022-09-28T08:47:59.634Z,12.50
2022-09-28T08:50:47.187Z,12.60
2022-09-28T08:53:38.147Z,12.70
2022-09-28T08:56:22.899Z,12.70
2022-09-28T08:58:58.378Z,12.80
2022-09-28T09:01:34.702Z,12.80
2022-09-28T09:04:08.334Z,12.90
2022-09-28T09:07:11.728Z,12.90
2022-09-28T09:09:55.705Z,13.00
2022-09-28T09:12:34.884Z,13.00
2022-09-28T09:15:35.379Z,13.20
2022-09-28T09:18:27.356Z,13.10
2022-09-28T09:21:15.672Z,13.20
2022-09-28T09:23:56.137Z,13.30
2022-09-28T09:26:39.227Z,13.40
2022-09-28T09:29:30.833Z,13.40
2022-09-28T09:32:14.423Z,13.40
2022-09-28T09:35:27.755Z,13.50
2022-09-28T09:38:51.723Z,13.50
2022-09-28T09:41:55.918Z,13.60
2022-09-28T09:45:17.634Z,13.70
2022-09-28T09:48:09.150Z,13.80
2022-09-28T09:50:45.727Z,13.80
2022-09-28T09:53:24.048Z,13.80
2022-09-28T09:55:58.351Z,13.90
2022-09-28T09:58:54.303Z,13.80
2022-09-28T10:01:35.884Z,13.80
2022-09-28T10:04:32.238Z,13.90
2022-09-28T10:07:07.476Z,13.90
2022-09-28T10:09:42.659Z,13.90
2022-09-28T10:12:41.656Z,13.90
2022-09-28T10:15:17.418Z,13.90
2022-09-28T10:17:58.978Z,13.90
2022-09-28T10:20:59.129Z,13.80
2022-09-28T10:24:03.396Z,13.90
2022-09-28T10:26:38.646Z,13.90
2022-09-28T10:29:17.846Z,13.90
2022-09-28T10:31:48.486Z,13.90
2022-09-28T10:34:31.243Z,13.80
2022-09-28T10:37:15.063Z,13.80
2022-09-28T10:39:57.232Z,13.80
2022-09-28T10:42:31.605Z,13.70
2022-09-28T10:45:06.278Z,13.70
2022-09-28T10:47:38.696Z,13.70
2022-09-28T10:50:23.442Z,13.60
2022-09-28T10:53:13.513Z,13.60
2022-09-28T10:56:05.598Z,13.70
2022-09-28T10:58:40.608Z,13.70
2022-09-28T11:01:17.460Z,13.80
2022-09-28T11:03:53.537Z,13.70
2022-09-28T11:06:28.492Z,13.80
2022-09-28T11:09:00.781Z,13.80
2022-09-28T11:11:31.497Z,14.00
2022-09-28T11:14:06.412Z,13.80
2022-09-28T11:16:38.740Z,13.80
2022-09-28T11:19:28.813Z,13.70
2022-09-28T11:21:57.316Z,13.70
2022-09-28T11:24:34.795Z,13.70
2022-09-28T11:27:05.876Z,13.60
2022-09-28T11:29:40.018Z,13.60
2022-09-28T11:32:33.476Z,13.60
2022-09-28T11:35:47.292Z,13.60
2022-09-28T11:38:34.766Z,13.50
2022-09-28T11:41:48.947Z,13.40
2022-09-28T11:44:38.407Z,13.40
2022-09-28T11:47:41.669Z,13.40
2022-09-28T11:50:24.589Z,13.30
2022-09-28T11:53:02.821Z,13.30
2022-09-28T11:55:37.435Z,13.30
2022-09-28T11:58:12.942Z,13.30
2022-09-28T12:00:47.591Z,13.30
2022-09-28T12:03:23.907Z,13.50
2022-09-28T12:05:58.073Z,13.40
2022-09-28T12:08:30.280Z,13.60
2022-09-28T12:11:03.908Z,13.50
2022-09-28T12:13:56.184Z,13.60
2022-09-28T12:17:00.944Z,13.70
2022-09-28T12:19:25.131Z,13.70
2022-09-28T12:21:58.106Z,13.80
2022-09-28T12:24:30.635Z,13.80
2022-09-28T12:27:06.061Z,13.90
2022-09-28T12:29:41.196Z,14.10
2022-09-28T12:32:24.560Z,14.00
2022-09-28T12:34:54.409Z,14.10
2022-09-28T12:38:12.468Z,14.10
2022-09-28T12:40:54.573Z,14.20
2022-09-28T12:43:45.905Z,14.20
2022-09-28T12:46:35.010Z,14.30
2022-09-28T12:52:30.595Z,14.50
2022-09-28T12:55:43.339Z,14.50
2022-09-28T12:58:34.985Z,14.70
2022-09-28T13:01:20.216Z,14.50
2022-09-28T13:04:12.774Z,14.40
2022-09-28T13:06:56.363Z,14.40
2022-09-28T13:09:28.060Z,14.40
2022-09-28T13:12:06.883Z,14.30
2022-09-28T13:15:21.799Z,14.30
2022-09-28T13:18:02.793Z,14.20
2022-09-28T13:20:48.659Z,14.20
2022-09-28T13:23:22.501Z,14.30
2022-09-28T13:25:57.858Z,14.40
2022-09-28T13:28:28.690Z,14.20
2022-09-28T13:33:37.326Z,14.30
2022-09-28T13:36:36.599Z,14.30
2022-09-28T13:39:05.282Z,14.40
2022-09-28T13:41:36.693Z,14.40
2022-09-28T13:44:25.080Z,14.50
2022-09-28T13:47:20.880Z,14.50
2022-09-28T13:50:05.149Z,14.60
2022-09-28T13:52:46.860Z,14.80
2022-09-28T13:55:33.030Z,14.80
2022-09-28T13:58:07.574Z,14.70
2022-09-28T14:00:47.122Z,14.60
2022-09-28T14:03:28.976Z,14.70
2022-09-28T14:06:11.039Z,14.80
2022-09-28T14:08:45.833Z,14.80
2022-09-28T14:12:08.426Z,15.00
2022-09-28T14:14:51.375Z,14.80
2022-09-28T14:17:59.593Z,14.80
2022-09-28T14:20:31.437Z,14.80
2022-09-28T14:23:57.592Z,15.10
2022-09-28T14:27:11.315Z,14.80
2022-09-28T14:29:41.316Z,14.80
2022-09-28T14:32:26.146Z,14.90
2022-09-28T14:35:01.207Z,14.90
2022-09-28T14:37:51.727Z,14.90
2022-09-28T14:40:41.188Z,15.00
2022-09-28T14:43:36.166Z,15.00
2022-09-28T14:46:35.561Z,14.90
2022-09-28T14:49:47.625Z,14.90
2022-09-28T14:52:39.976Z,14.90
2022-09-28T14:55:20.898Z,15.00
2022-09-28T14:57:57.182Z,14.90
2022-09-28T15:00:29.378Z,15.10
2022-09-28T15:03:03.776Z,14.90
2022-09-28T15:05:39.930Z,15.10
2022-09-28T15:08:08.748Z,14.90
2022-09-28T15:10:42.134Z,14.90
2022-09-28T15:13:21.857Z,14.70
2022-09-28T15:15:53.264Z,14.70
2022-09-28T15:19:10.832Z,14.90
2022-09-28T15:21:42.474Z,14.70
2022-09-28T15:24:29.072Z,14.70
2022-09-28T15:26:57.853Z,14.70
2022-09-28T15:29:28.186Z,14.70
2022-09-28T15:31:56.550Z,14.70
2022-09-28T15:34:47.242Z,14.70
2022-09-28T15:37:22.088Z,14.70
2022-09-28T15:39:51.773Z,14.60
2022-09-28T15:42:20.833Z,14.70
2022-09-28T15:45:24.924Z,14.60
2022-09-28T15:47:58.482Z,14.60
2022-09-28T15:50:29.220Z,14.60
2022-09-28T15:53:02.096Z,14.70
2022-09-28T15:55:33.754Z,14.60
2022-09-28T15:58:19.698Z,14.60
2022-09-28T16:00:50.182Z,14.50
2022-09-28T16:03:25.449Z,14.50
2022-09-28T16:06:07.659Z,14.70
2022-09-28T16:08:43.178Z,14.60
2022-09-28T16:11:18.635Z,14.50
2022-09-28T16:13:57.217Z,14.50
2022-09-28T16:16:30.492Z,14.60
2022-09-28T16:19:01.701Z,14.50
2022-09-28T16:21:46.996Z,14.60
2022-09-28T16:24:26.221Z,14.50
2022-09-28T16:27:01.105Z,14.40
2022-09-28T16:29:39.786Z,14.40
2022-09-28T16:32:41.744Z,14.40
2022-09-28T16:35:26.947Z,14.40
2022-09-28T16:38:11.299Z,14.40
2022-09-28T16:40:46.301Z,14.40
2022-09-28T16:43:25.306Z,14.50
2022-09-28T16:45:57.647Z,14.50
2022-09-28T16:48:28.986Z,14.50
2022-09-28T16:50:57.576Z,14.30
2022-09-28T16:53:43.888Z,14.30
2022-09-28T16:56:14.273Z,14.30
2022-09-28T16:58:42.732Z,14.30
2022-09-28T17:01:13.139Z,14.40
2022-09-28T17:03:46.711Z,14.20
2022-09-28T17:06:16.114Z,14.40
2022-09-28T17:08:45.100Z,14.20
2022-09-28T17:11:24.071Z,14.20
2022-09-28T17:13:56.756Z,14.20
2022-09-28T17:16:57.360Z,14.20
2022-09-28T17:19:21.756Z,14.10
2022-09-28T17:21:50.569Z,14.10
2022-09-28T17:24:19.591Z,14.00
2022-09-28T17:26:52.610Z,14.00
2022-09-28T17:29:21.176Z,14.00
2022-09-28T17:31:49.603Z,14.20
2022-09-28T17:34:18.192Z,14.00
2022-09-28T17:36:47.038Z,14.10
2022-09-28T17:39:18.551Z,14.00
2022-09-28T17:41:47.088Z,14.00
2022-09-28T17:44:16.942Z,13.90
2022-09-28T17:46:49.185Z,13.90
2022-09-28T17:49:18.786Z,13.90
2022-09-28T17:51:47.488Z,14.10
2022-09-28T17:54:20.185Z,14.10
2022-09-28T17:56:49.125Z,13.90
2022-09-28T17:59:19.782Z,13.90
2022-09-28T18:01:48.434Z,14.00
2022-09-28T18:04:33.306Z,13.90
2022-09-28T18:07:06.028Z,13.90
2022-09-28T18:09:34.706Z,13.90
2022-09-28T18:12:06.369Z,13.90
2022-09-28T18:14:36.880Z,13.80
2022-09-28T18:17:05.474Z,13.80
2022-09-28T18:19:34.101Z,13.80
2022-09-28T18:22:02.762Z,13.80
2022-09-28T18:24:32.587Z,13.80
2022-09-28T18:27:01.479Z,13.70
2022-09-28T18:29:33.303Z,13.70
2022-09-28T18:32:04.251Z,13.60
2022-09-28T18:34:36.442Z,13.60
2022-09-28T18:37:05.793Z,13.60
2022-09-28T18:39:36.094Z,13.50
2022-09-28T18:42:04.894Z,13.50
2022-09-28T18:44:33.930Z,13.50
2022-09-28T18:47:03.895Z,13.40
2022-09-28T18:49:33.649Z,13.40
2022-09-28T18:52:02.692Z,13.30
2022-09-28T18:54:31.223Z,13.30
2022-09-28T18:57:00.016Z,13.30
2022-09-28T18:59:28.540Z,13.30
2022-09-28T19:01:57.155Z,13.20
2022-09-28T19:04:27.907Z,13.20
2022-09-28T19:06:56.998Z,13.20
2022-09-28T19:09:26.537Z,13.20
2022-09-28T19:11:55.163Z,13.20
2022-09-28T19:14:23.741Z,13.20
2022-09-28T19:16:52.243Z,13.20
2022-09-28T19:19:21.665Z,13.10
2022-09-28T19:21:51.650Z,13.10
2022-09-28T19:24:20.900Z,13.10
2022-09-28T19:26:50.059Z,13.10
2022-09-28T19:29:18.868Z,13.10
2022-09-28T19:31:47.624Z,13.00
2022-09-28T19:34:16.585Z,13.00
2022-09-28T19:36:45.527Z,13.00
2022-09-28T19:39:17.721Z,13.00
2022-09-28T19:41:49.618Z,13.00
2022-09-28T19:44:24.963Z,13.00
2022-09-28T19:46:55.365Z,13.00
2022-09-28T19:49:25.518Z,12.90
2022-09-28T19:52:11.982Z,12.90
2022-09-28T19:54:44.996Z,12.90
2022-09-28T19:57:16.051Z,12.90
2022-09-28T19:59:48.406Z,12.90
2022-09-28T20:02:19.734Z,12.90
2022-09-28T20:04:49.184Z,12.90
2022-09-28T20:07:18.109Z,12.90
2022-09-28T20:09:48.115Z,12.90
2022-09-28T20:12:16.628Z,12.90
2022-09-28T20:14:45.779Z,12.90
2022-09-28T20:17:15.022Z,12.90
2022-09-28T20:19:44.140Z,12.90
2022-09-28T20:22:13.106Z,12.90
2022-09-28T20:24:42.201Z,12.90
2022-09-28T20:27:12.523Z,12.90
2022-09-28T20:29:43.283Z,12.90
2022-09-28T20:32:13.017Z,12.80
2022-09-28T20:34:42.213Z,12.80
2022-09-28T20:37:14.028Z,12.80
2022-09-28T20:39:45.059Z,12.80
2022-09-28T20:42:16.629Z,12.80
2022-09-28T20:44:45.241Z,12.80
2022-09-28T20:47:13.767Z,12.80
2022-09-28T20:49:42.244Z,12.80
2022-09-28T20:52:10.856Z,12.80
2022-09-28T20:54:39.382Z,12.80
2022-09-28T20:57:17.628Z,12.80
2022-09-28T20:59:53.614Z,12.70
2022-09-28T21:02:23.565Z,12.70
2022-09-28T21:04:52.234Z,12.60
2022-09-28T21:07:20.797Z,12.70
2022-09-28T21:09:49.428Z,12.60
2022-09-28T21:12:18.244Z,12.60
2022-09-28T21:14:48.096Z,12.50
2022-09-28T21:17:16.639Z,12.50
2022-09-28T21:19:45.185Z,12.50
2022-09-28T21:22:14.184Z,12.50
2022-09-28T21:24:43.218Z,12.50
2022-09-28T21:27:12.410Z,12.40
2022-09-28T21:29:41.749Z,12.40
2022-09-28T21:32:12.513Z,12.30
2022-09-28T21:34:41.868Z,12.30
2022-09-28T21:37:10.932Z,12.30
2022-09-28T21:39:39.869Z,12.30
2022-09-28T21:42:08.974Z,12.30
2022-09-28T21:44:37.721Z,12.20
2022-09-28T21:47:06.316Z,12.20
2022-09-28T21:49:36.845Z,12.20
2022-09-28T21:52:06.003Z,12.10
2022-09-28T21:54:37.304Z,12.10
2022-09-28T21:57:06.947Z,12.10
2022-09-28T21:59:36.177Z,12.10
2022-09-28T22:02:06.588Z,12.10
2022-09-28T22:04:37.157Z,12.00
2022-09-28T22:07:06.372Z,12.00
2022-09-28T22:09:35.536Z,12.00
2022-09-28T22:12:04.088Z,11.90
2022-09-28T22:14:33.930Z,12.00
2022-09-28T22:17:02.462Z,11.90
2022-09-28T22:19:30.943Z,11.90
2022-09-28T22:22:00.973Z,11.90
2022-09-28T22:24:29.484Z,11.80
2022-09-28T22:26:58.033Z,11.80
2022-09-28T22:29:26.707Z,11.80
2022-09-28T22:32:00.241Z,11.80
2022-09-28T22:34:30.814Z,11.70
2022-09-28T22:37:02.995Z,11.70
2022-09-28T22:39:36.700Z,11.70
2022-09-28T22:42:06.435Z,11.70
2022-09-28T22:44:35.890Z,11.70
2022-09-28T22:47:04.500Z,11.60
2022-09-28T22:49:33.001Z,11.60
2022-09-28T22:52:03.241Z,11.60
2022-09-28T22:54:31.747Z,11.50
2022-09-28T22:57:00.296Z,11.50
2022-09-28T22:59:28.853Z,11.50
2022-09-28T23:01:57.450Z,11.50
2022-09-28T23:04:26.012Z,11.40
2022-09-28T23:06:54.888Z,11.40
2022-09-28T23:09:24.837Z,11.40
2022-09-28T23:11:53.403Z,11.40
2022-09-28T23:14:22.786Z,11.40
2022-09-28T23:16:51.325Z,11.30
2022-09-28T23:19:19.958Z,11.30
2022-09-28T23:21:48.670Z,11.30
2022-09-28T23:24:17.430Z,11.20
2022-09-28T23:26:47.297Z,11.30
2022-09-28T23:29:16.073Z,11.20
2022-09-28T23:31:45.592Z,11.10
2022-09-28T23:34:14.140Z,11.10
2022-09-28T23:36:42.766Z,11.10
2022-09-28T23:39:11.883Z,11.10
2022-09-28T23:41:40.452Z,11.00
2022-09-28T23:44:31.332Z,11.00
2022-09-28T23:47:00.053Z,11.00
2022-09-28T23:49:29.660Z,11.00
2022-09-28T23:51:58.337Z,11.00
2022-09-28T23:54:26.817Z,11.00
2022-09-28T23:56:55.408Z,10.90
2022-09-28T23:59:23.963Z,10.90
